Time;durP1;ratioP1;P1;durP2;ratioP2;P2;SDS_P1;SDS_P2;PMS_P1;PMS_P2;Temp;Humidity;BMP_temperature;BMP_pressure;BME280_temperature;BME280_humidity;BME280_pressure;Samples;Min_cycle;Max_cycle;Signal;HPM_P1;HPM_P2
2022/06/06 00:00:43;;;;;;;17.65;14.32;;;;;;;15.28;80.47;100028.13;10474133;28;20040;-76
2022/06/06 00:05:49;;;;;;;23.08;18.65;;;;;;;15.55;79.46;100024.34;10480691;28;20044;-78
2022/06/06 00:10:56;;;;;;;19.98;16.60;;;;;;;15.32;79.64;100017.81;10460595;28;20053;-76
2022/06/06 00:16:00;;;;;;;22.38;15.43;;;;;;;15.21;79.83;100018.94;10474804;28;20041;-77
2022/06/06 00:21:07;;;;;;;26.58;21.77;;;;;;;15.44;79.06;100028.22;10480488;28;20040;-77
2022/06/06 00:26:12;;;;;;;25.67;21.02;;;;;;;15.78;77.51;100015.59;10454927;28;20056;-76
2022/06/06 00:36:39;;;;;;;23.20;18.23;;;;;;;15.62;77.81;100028.06;10481414;28;20037;-77
2022/06/06 00:41:45;;;;;;;24.75;15.55;;;;;;;15.39;77.41;100027.00;10471286;28;20043;-78
2022/06/06 00:46:53;;;;;;;24.00;18.95;;;;;;;15.45;77.66;100023.63;10477986;28;20040;-76
2022/06/06 00:51:58;;;;;;;22.83;18.15;;;;;;;15.30;78.36;100026.06;10476959;28;20043;-77
2022/06/06 00:57:05;;;;;;;32.97;24.27;;;;;;;15.35;77.99;100023.75;10480865;28;20127;-76
2022/06/06 01:02:11;;;;;;;35.50;28.58;;;;;;;15.42;78.44;100040.19;10468904;22;20045;-76
2022/06/06 01:07:16;;;;;;;33.13;22.40;;;;;;;15.33;78.86;100043.84;10478548;28;20463;-77
2022/06/06 01:12:21;;;;;;;39.42;26.92;;;;;;;15.38;78.90;100046.94;10468230;28;20044;-77
2022/06/06 01:17:37;;;;;;;46.28;30.05;;;;;;;15.77;77.60;100041.81;10482501;28;20037;-77
2022/06/06 01:23:12;;;;;;;51.85;34.58;;;;;;;15.56;77.91;100031.44;10471417;28;20049;-76
2022/06/06 01:28:42;;;;;;;54.38;33.45;;;;;;;15.73;77.73;100040.44;10471863;28;20071;-77
2022/06/06 01:33:51;;;;;;;69.13;40.03;;;;;;;16.07;76.77;100031.34;10453122;28;20061;-77
2022/06/06 01:38:55;;;;;;;64.68;36.42;;;;;;;15.75;78.27;100029.47;10461614;28;20033;-76
2022/06/06 01:44:06;;;;;;;59.35;36.15;;;;;;;15.75;77.59;100038.44;10472423;28;20297;-76
2022/06/06 01:49:12;;;;;;;65.90;41.00;;;;;;;15.92;77.98;100039.28;10463698;28;20152;-77
2022/06/06 01:54:17;;;;;;;64.68;39.95;;;;;;;16.04;77.70;100037.09;10471135;28;20044;-77
2022/06/06 01:59:22;;;;;;;55.08;36.08;;;;;;;16.07;77.37;100025.91;10453901;28;20084;-76
2022/06/06 02:04:24;;;;;;;57.30;36.45;;;;;;;16.15;77.18;100026.78;10453143;28;20063;-76
2022/06/06 02:09:31;;;;;;;54.10;34.05;;;;;;;16.12;77.11;100027.09;10462089;28;20082;-76
2022/06/06 02:14:36;;;;;;;49.50;33.33;;;;;;;16.05;77.40;100026.09;10470632;28;20145;-76
2022/06/06 02:19:40;;;;;;;49.95;30.42;;;;;;;16.09;76.75;100023.88;10470227;28;20048;-77
2022/06/06 02:24:42;;;;;;;41.92;26.55;;;;;;;16.25;75.90;100039.31;10467740;28;20041;-76
2022/06/06 02:29:47;;;;;;;43.35;26.88;;;;;;;16.30;76.14;100040.53;10469068;28;20128;-77
2022/06/06 02:34:50;;;;;;;41.53;25.05;;;;;;;15.87;78.64;100061.44;10462928;28;20045;-76
2022/06/06 02:39:52;;;;;;;60.72;36.08;;;;;;;15.63;78.99;100070.38;10466445;28;20041;-76
2022/06/06 02:44:57;;;;;;;65.13;37.17;;;;;;;15.15;79.69;100054.78;10433822;28;20674;-76
2022/06/06 02:50:00;;;;;;;55.70;29.63;;;;;;;14.97;78.56;100088.13;10451420;28;20056;-76
2022/06/06 02:55:05;;;;;;;34.22;17.90;;;;;;;14.44;77.62;100080.19;10468625;28;20032;-76
2022/06/06 03:00:14;;;;;;;40.50;19.10;;;;;;;14.55;76.47;100096.16;10471581;28;20045;-76
2022/06/06 03:05:17;;;;;;;41.75;21.65;;;;;;;14.54;76.06;100100.72;10460686;28;20045;-76
2022/06/06 03:10:27;;;;;;;36.03;17.77;;;;;;;14.67;75.67;100119.19;10472764;28;20053;-76
2022/06/06 03:20:46;;;;;;;46.50;22.13;;;;;;;14.59;75.96;100108.34;10473286;28;20041;-76
2022/06/06 03:21:20;;;;;;;35.60;19.55;;;;;;;14.24;77.32;100120.84;10478329;28;20119;-76
2022/06/06 03:26:35;;;;;;;47.90;23.98;;;;;;;14.67;75.70;100130.00;10467012;28;20047;-76
2022/06/06 03:31:49;;;;;;;35.08;15.00;;;;;;;14.46;75.83;100134.94;10462930;28;20036;-76
2022/06/06 03:37:10;;;;;;;33.78;16.75;;;;;;;14.56;75.30;100144.66;10467776;28;20127;-76
2022/06/06 03:42:22;;;;;;;37.60;16.67;;;;;;;14.37;75.52;100139.34;10471323;28;20514;-77
2022/06/06 03:47:40;;;;;;;28.10;14.48;;;;;;;14.28;76.24;100145.69;10450225;28;20450;-76
2022/06/06 03:52:48;;;;;;;34.72;17.38;;;;;;;14.62;74.64;100147.72;10460261;28;20045;-77
2022/06/06 03:57:53;;;;;;;46.30;20.60;;;;;;;14.67;75.07;100151.63;10472947;28;20057;-76
2022/06/06 04:03:00;;;;;;;30.15;13.80;;;;;;;14.65;75.25;100156.38;10460080;28;20072;-76
2022/06/06 04:08:03;;;;;;;42.50;20.42;;;;;;;14.76;74.49;100152.56;10449615;28;20127;-77
2022/06/06 04:13:19;;;;;;;46.97;23.23;;;;;;;14.49;75.97;100158.94;10464516;28;20044;-76
2022/06/06 04:18:32;;;;;;;40.90;19.35;;;;;;;14.52;75.27;100151.38;10465865;28;20041;-76
2022/06/06 04:23:55;;;;;;;48.88;23.58;;;;;;;14.63;74.94;100158.38;10474992;28;20040;-76
2022/06/06 04:29:06;;;;;;;45.70;21.20;;;;;;;14.76;74.84;100169.66;10472054;28;20514;-77
2022/06/06 04:34:16;;;;;;;45.20;23.38;;;;;;;14.81;74.75;100164.63;10480082;28;20328;-77
2022/06/06 04:39:26;;;;;;;45.15;23.23;;;;;;;14.92;74.12;100168.06;10475344;28;20086;-77
2022/06/06 04:44:37;;;;;;;47.72;22.40;;;;;;;15.06;74.22;100167.50;10457898;28;20041;-75
2022/06/06 04:49:42;;;;;;;48.42;23.73;;;;;;;14.99;74.18;100183.50;10463979;28;20041;-77
2022/06/06 04:54:47;;;;;;;46.63;25.20;;;;;;;15.15;74.06;100173.81;10478820;28;20056;-77
2022/06/06 04:59:52;;;;;;;53.58;27.52;;;;;;;15.21;73.73;100173.16;10477899;28;20041;-76
2022/06/06 05:04:56;;;;;;;55.55;28.00;;;;;;;15.22;74.02;100174.84;10477085;28;20882;-76
2022/06/06 05:10:16;;;;;;;53.30;26.95;;;;;;;15.35;73.64;100171.75;10477497;28;20405;-77
2022/06/06 05:15:31;;;;;;;54.78;25.02;;;;;;;15.32;73.60;100177.47;10475994;28;20040;-76
2022/06/06 05:20:48;;;;;;;60.08;32.83;;;;;;;15.50;73.32;100163.91;10475858;28;20040;-76
2022/06/06 05:26:05;;;;;;;55.95;29.52;;;;;;;15.53;72.77;100193.34;10474762;28;20127;-75
2022/06/06 05:31:21;;;;;;;61.78;31.85;;;;;;;16.01;71.23;100197.25;10481149;28;20047;-76
2022/06/06 05:36:42;;;;;;;55.38;28.75;;;;;;;15.81;71.13;100207.53;10475660;28;20040;-76
2022/06/06 05:42:05;;;;;;;46.03;25.65;;;;;;;15.60;71.68;100206.06;10466234;28;20392;-76
2022/06/06 05:47:15;;;;;;;38.90;22.00;;;;;;;15.47;72.24;100224.63;10471393;28;20041;-76
2022/06/06 05:52:35;;;;;;;47.47;24.05;;;;;;;15.33;72.84;100222.44;10476515;28;20049;-75
2022/06/06 05:57:57;;;;;;;40.85;24.70;;;;;;;15.53;72.45;100223.97;10483564;28;20049;-77
2022/06/06 06:03:22;;;;;;;43.37;22.37;;;;;;;15.30;72.68;100231.72;10477420;28;20110;-77
2022/06/06 06:08:41;;;;;;;46.13;26.85;;;;;;;15.73;71.54;100212.91;10454579;28;20279;-76
2022/06/06 06:14:00;;;;;;;44.88;25.65;;;;;;;16.39;69.46;100220.25;10486772;28;20044;-77
2022/06/06 06:19:09;;;;;;;40.88;24.70;;;;;;;16.46;68.48;100237.56;10466688;28;20049;-76
2022/06/06 06:24:18;;;;;;;32.88;20.67;;;;;;;16.40;68.28;100219.28;10469564;28;20041;-75
2022/06/06 06:29:20;;;;;;;38.53;24.40;;;;;;;16.72;67.92;100229.28;10452219;28;20049;-76
2022/06/06 06:34:34;;;;;;;34.22;22.95;;;;;;;16.74;68.00;100242.69;10466057;28;20491;-75
2022/06/06 06:40:06;;;;;;;32.92;20.50;;;;;;;16.84;67.93;100243.38;10467059;28;20045;-77
2022/06/06 06:45:15;;;;;;;30.58;20.23;;;;;;;17.67;65.64;100242.31;10458009;28;20052;-75
2022/06/06 06:50:22;;;;;;;27.42;18.45;;;;;;;17.91;63.99;100247.66;10462180;28;20110;-76
2022/06/06 06:55:37;;;;;;;27.65;17.13;;;;;;;18.00;64.19;100242.22;10466325;28;20041;-78
2022/06/06 07:00:50;;;;;;;24.13;14.55;;;;;;;17.69;65.13;100245.69;10452332;28;20041;-78
2022/06/06 07:11:36;;;;;;;22.02;15.25;;;;;;;18.19;63.67;100244.50;10484240;28;20045;-77
2022/06/06 07:16:40;;;;;;;18.73;13.07;;;;;;;18.18;63.16;100248.22;10458427;28;20044;-77
2022/06/06 07:21:46;;;;;;;20.38;11.57;;;;;;;17.87;63.56;100259.88;10478314;28;20044;-76
2022/06/06 07:26:51;;;;;;;12.70;9.95;;;;;;;17.46;63.81;100256.44;10457269;28;20132;-76
2022/06/06 07:32:10;;;;;;;15.77;11.15;;;;;;;17.35;64.96;100260.34;10482272;28;20052;-77
2022/06/06 07:37:30;;;;;;;11.90;8.48;;;;;;;17.04;62.96;100274.59;10479499;28;20197;-76
2022/06/06 07:42:52;;;;;;;12.80;7.65;;;;;;;18.48;59.07;100265.56;10475787;28;20442;-76
2022/06/06 07:48:13;;;;;;;8.43;5.78;;;;;;;19.80;54.75;100257.19;10475662;28;20077;-76
2022/06/06 07:53:25;;;;;;;6.32;5.00;;;;;;;21.08;50.65;100250.34;10435006;28;20582;-77
2022/06/06 07:58:37;;;;;;;6.90;4.37;;;;;;;18.92;53.07;100264.13;10481433;28;20624;-76
2022/06/06 08:03:49;;;;;;;5.55;4.43;;;;;;;18.40;56.23;100254.75;10490312;28;20037;-77
2022/06/06 08:09:12;;;;;;;4.47;4.05;;;;;;;19.03;54.22;100263.69;10473049;28;20100;-77
2022/06/06 08:14:21;;;;;;;;;;;;;;;19.08;52.84;100268.59;10479268;28;20557;-77
2022/06/06 08:19:47;;;;;;;5.75;4.80;;;;;;;18.25;57.26;100260.09;10459452;28;20328;-77
2022/06/06 08:24:54;;;;;;;5.95;4.72;;;;;;;18.31;55.66;100261.25;10491466;28;20040;-76
2022/06/06 08:30:07;;;;;;;10.13;4.57;;;;;;;17.68;56.00;100271.16;10489428;28;20075;-76
2022/06/06 08:35:10;;;;;;;5.13;4.28;;;;;;;18.54;54.16;100266.72;10458438;28;20045;-76
2022/06/06 08:40:40;;;;;;;4.82;4.32;;;;;;;19.27;51.78;100262.63;10468646;28;20068;-77
2022/06/06 08:46:06;;;;;;;6.03;5.10;;;;;;;19.25;52.22;100267.41;10485920;28;20040;-76
2022/06/06 08:51:24;;;;;;;5.30;4.80;;;;;;;19.33;52.55;100259.19;10494241;28;20514;-76
2022/06/06 08:56:44;;;;;;;7.22;3.92;;;;;;;18.57;53.42;100260.97;10495643;28;20033;-76
2022/06/06 09:02:22;;;;;;;4.65;3.47;;;;;;;19.36;51.12;100267.00;10480823;28;20040;-76
2022/06/06 09:08:07;;;;;;;3.58;3.03;;;;;;;18.89;51.84;100257.16;10457273;28;20075;-76
2022/06/06 09:13:49;;;;;;;7.10;1.95;;;;;;;17.99;52.10;100268.56;10466056;28;20064;-77
2022/06/06 09:19:33;;;;;;;3.95;1.65;;;;;;;19.11;47.66;100252.75;10478976;28;20098;-76
2022/06/06 09:25:08;;;;;;;1.75;1.50;;;;;;;18.65;47.04;100276.34;10472315;28;20048;-77
2022/06/06 09:30:40;;;;;;;2.72;1.98;;;;;;;20.00;45.95;100255.59;10438264;28;20053;-76
2022/06/06 09:35:54;;;;;;;2.35;1.83;;;;;;;20.27;46.73;100262.25;10474987;28;20033;-76
2022/06/06 09:41:11;;;;;;;2.03;1.90;;;;;;;20.16;46.00;100261.88;10455786;28;20045;-76
2022/06/06 09:46:43;;;;;;;6.72;1.90;;;;;;;20.47;43.70;100259.78;10476310;28;20036;-76
2022/06/06 09:52:24;;;;;;;3.78;1.85;;;;;;;19.96;45.99;100240.66;10479451;28;20037;-76
2022/06/06 10:04:00;;;;;;;3.35;1.63;;;;;;;20.09;43.73;100243.53;10452427;28;20408;-77
2022/06/06 10:09:35;;;;;;;4.28;1.27;;;;;;;20.11;43.19;100238.75;10465411;28;20053;-77
2022/06/06 10:14:57;;;;;;;4.10;1.45;;;;;;;20.57;43.66;100245.84;10464637;28;20041;-77
2022/06/06 10:20:17;;;;;;;2.17;1.80;;;;;;;20.79;43.21;100244.81;10489775;28;20091;-77
2022/06/06 10:25:36;;;;;;;3.28;1.35;;;;;;;21.36;41.59;100248.47;10471510;28;20047;-77
2022/06/06 10:30:51;;;;;;;2.88;1.10;;;;;;;20.18;44.05;100249.72;10455622;28;20052;-77
2022/06/06 10:36:06;;;;;;;1.48;1.35;;;;;;;19.94;43.07;100261.81;10445491;28;20056;-77
2022/06/06 10:41:22;;;;;;;3.30;1.20;;;;;;;20.01;42.54;100256.44;10499851;28;20384;-77
2022/06/06 10:46:35;;;;;;;1.20;0.90;;;;;;;19.36;42.53;100253.38;10484954;28;20115;-77
2022/06/06 10:52:22;;;;;;;2.03;1.13;;;;;;;20.05;42.07;100241.41;10481220;28;20106;-77
2022/06/06 10:57:55;;;;;;;0.82;0.82;;;;;;;21.05;41.88;100258.94;10471270;28;20048;-76
2022/06/06 11:03:45;;;;;;;1.10;1.00;;;;;;;21.26;40.64;100237.06;10485757;28;20041;-77
2022/06/06 11:09:25;;;;;;;2.15;0.80;;;;;;;21.71;40.73;100236.72;10455352;28;20037;-77
2022/06/06 11:14:33;;;;;;;1.17;0.98;;;;;;;20.01;42.33;100240.91;10462148;28;20041;-77
2022/06/06 11:20:09;;;;;;;2.28;0.93;;;;;;;19.04;44.64;100248.22;10453563;28;20424;-77
2022/06/06 11:25:15;;;;;;;0.70;0.70;;;;;;;19.52;44.17;100235.16;10471463;28;20033;-77
2022/06/06 11:30:46;;;;;;;2.15;1.10;;;;;;;21.38;41.50;100256.47;10463222;28;20049;-77
2022/06/06 11:36:09;;;;;;;2.08;1.05;;;;;;;21.07;40.89;100240.47;10486166;28;20067;-77
2022/06/06 11:41:25;;;;;;;1.30;1.20;;;;;;;20.71;42.37;100225.81;10495666;28;20048;-77
2022/06/06 11:47:07;;;;;;;1.40;0.88;;;;;;;20.23;41.55;100232.81;10477939;28;20037;-77
2022/06/06 11:52:50;;;;;;;3.67;1.20;;;;;;;19.70;45.21;100230.25;10463255;28;20095;-77
2022/06/06 11:58:04;;;;;;;;;;;;;;;19.57;43.74;100235.50;10495283;28;20283;-75
2022/06/06 12:03:42;;;;;;;1.13;1.02;;;;;;;19.50;43.90;100232.66;10460015;28;19973;-76
2022/06/06 12:09:01;;;;;;;0.90;0.90;;;;;;;19.67;44.05;100236.91;10467030;28;20096;-76
2022/06/06 12:14:25;;;;;;;6.35;1.50;;;;;;;20.67;42.85;100229.97;10475877;28;20051;-75
2022/06/06 12:19:58;;;;;;;2.95;0.82;;;;;;;21.64;41.25;100231.22;10510247;23;20040;-79
2022/06/06 12:25:29;;;;;;;1.00;0.55;;;;;;;20.60;41.60;100240.00;10488958;28;20135;-80
2022/06/06 12:30:49;;;;;;;1.45;0.68;;;;;;;20.86;41.33;100233.09;10495784;28;20090;-79
2022/06/06 12:35:58;;;;;;;2.80;0.40;;;;;;;19.82;42.44;100255.97;10498292;28;20045;-80
2022/06/06 12:41:15;;;;;;;2.55;0.55;;;;;;;19.42;44.18;100244.47;10478017;28;20499;-80
2022/06/06 12:46:42;;;;;;;1.55;0.43;;;;;;;20.04;44.13;100228.78;10463128;28;20511;-80
2022/06/06 12:52:02;;;;;;;1.05;0.63;;;;;;;20.25;42.23;100222.56;10466291;28;20045;-80
2022/06/06 12:57:10;;;;;;;0.77;0.68;;;;;;;20.04;41.44;100220.63;10486675;28;20041;-80
2022/06/06 13:02:47;;;;;;;1.92;0.50;;;;;;;22.25;39.51;100212.19;10490109;28;20048;-80
2022/06/06 13:08:08;;;;;;;2.17;0.50;;;;;;;21.94;40.05;100200.91;10491000;28;20048;-79
2022/06/06 13:13:34;;;;;;;0.93;0.60;;;;;;;21.73;40.50;100210.03;10492007;28;20041;-79
2022/06/06 13:19:01;;;;;;;1.60;0.90;;;;;;;21.68;39.94;100203.28;10454091;28;20053;-80
2022/06/06 13:24:21;;;;;;;1.73;0.80;;;;;;;20.01;42.93;100223.72;10466314;28;20407;-79
2022/06/06 13:29:28;;;;;;;2.00;0.65;;;;;;;18.95;48.43;100210.19;10472781;28;20056;-81
2022/06/06 13:34:43;;;;;;;1.38;0.77;;;;;;;17.55;53.73;100227.38;10481953;28;20064;-81
2022/06/06 13:40:08;;;;;;;1.58;0.90;;;;;;;14.94;66.44;100264.25;10479239;28;20051;-80
2022/06/06 13:45:19;;;;;;;4.18;1.20;;;;;;;16.58;70.12;100247.06;10497602;28;20097;-80
2022/06/06 13:50:30;;;;;;;2.53;1.23;;;;;;;17.89;63.43;100251.56;10472883;28;20514;-79
2022/06/06 13:55:35;;;;;;;4.20;1.00;;;;;;;18.67;64.01;100222.63;10460102;28;20045;-81
2022/06/06 14:00:45;;;;;;;1.67;1.00;;;;;;;19.94;54.49;100229.09;10462565;28;20041;-81
2022/06/06 14:06:09;;;;;;;2.20;0.68;;;;;;;19.76;50.73;100228.63;10484874;28;20043;-80
2022/06/06 14:11:13;;;;;;;1.33;0.77;;;;;;;20.14;49.41;100207.53;10482384;28;20040;-81
2022/06/06 14:16:24;;;;;;;0.80;0.80;;;;;;;21.87;49.68;100206.34;10484490;28;20032;-80
2022/06/06 14:21:35;;;;;;;1.63;0.80;;;;;;;22.52;45.98;100204.94;10485177;28;20560;-81
2022/06/06 14:26:39;;;;;;;0.70;0.70;;;;;;;22.81;42.80;100200.13;10481933;28;20298;-81
2022/06/06 14:31:45;;;;;;;1.75;0.70;;;;;;;21.56;43.65;100202.16;10478755;28;20458;-81
2022/06/06 14:37:05;;;;;;;2.05;0.70;;;;;;;21.75;42.60;100180.63;10471944;28;20074;-81
2022/06/06 14:42:11;;;;;;;1.85;0.70;;;;;;;21.15;42.89;100194.75;10469186;28;20041;-79
2022/06/06 14:47:18;;;;;;;0.95;0.50;;;;;;;21.18;42.49;100188.88;10465446;28;20053;-81
2022/06/06 14:52:24;;;;;;;0.60;0.50;;;;;;;21.52;41.63;100176.28;10471954;28;20041;-79
2022/06/06 14:57:30;;;;;;;1.00;0.50;;;;;;;22.17;39.16;100171.34;10459149;28;20049;-81
2022/06/06 15:02:34;;;;;;;3.47;0.55;;;;;;;21.52;37.18;100189.09;10475342;28;20072;-80
2022/06/06 15:07:45;;;;;;;0.40;0.40;;;;;;;20.93;39.83;100176.69;10481140;28;20060;-80
2022/06/06 15:12:48;;;;;;;2.90;0.60;;;;;;;21.59;39.06;100177.16;10469603;28;20458;-80
2022/06/06 15:17:51;;;;;;;0.93;0.68;;;;;;;22.28;36.47;100170.75;10487359;28;20475;-78
2022/06/06 15:22:58;;;;;;;0.70;0.70;;;;;;;20.62;39.40;100161.47;10486021;28;20059;-80
2022/06/06 15:28:21;;;;;;;2.47;0.70;;;;;;;20.23;40.43;100153.72;10473455;28;20518;-79
2022/06/06 15:33:32;;;;;;;;;;;;;;;21.65;38.91;100135.34;10460726;28;20064;-81
2022/06/06 15:39:19;;;;;;;0.70;0.60;;;;;;;21.15;39.47;100153.78;10483102;28;20333;-81
2022/06/06 15:44:36;;;;;;;2.83;0.93;;;;;;;22.49;37.82;100147.00;10402503;28;20159;-81
2022/06/06 15:50:02;;;;;;;0.77;0.55;;;;;;;20.01;41.35;100141.94;10479785;28;20045;-80
2022/06/06 15:55:18;;;;;;;1.02;0.80;;;;;;;21.92;38.25;100121.84;10456847;28;20080;-80
2022/06/06 16:00:25;;;;;;;0.98;0.82;;;;;;;23.37;36.18;100109.28;10466847;28;20102;-81
2022/06/06 16:05:31;;;;;;;2.75;0.82;;;;;;;23.08;36.46;100105.09;10492066;28;20071;-81
2022/06/06 16:10:41;;;;;;;2.58;0.82;;;;;;;22.50;37.54;100102.19;10468506;28;20442;-80
2022/06/06 16:15:58;;;;;;;2.83;0.75;;;;;;;23.44;36.35;100112.00;10489630;28;20048;-82
2022/06/06 16:21:06;;;;;;;0.95;0.50;;;;;;;22.46;37.29;100095.44;10459589;28;20088;-81
2022/06/06 16:26:13;;;;;;;2.60;0.80;;;;;;;23.16;37.04;100087.63;10489760;28;20410;-81
2022/06/06 16:31:29;;;;;;;1.23;0.57;;;;;;;22.27;38.31;100099.81;10494272;28;20052;-81
2022/06/06 16:36:54;;;;;;;3.42;0.60;;;;;;;22.73;37.00;100080.69;10483653;28;20041;-81
2022/06/06 16:47:56;;;;;;;1.00;0.73;;;;;;;21.92;36.82;100086.28;10484247;28;20041;-78
2022/06/06 16:53:12;;;;;;;2.80;0.80;;;;;;;24.66;32.37;100077.16;10478085;28;20079;-78
2022/06/06 16:58:29;;;;;;;1.17;0.90;;;;;;;24.56;33.04;100079.56;10468939;28;20117;-82
2022/06/06 17:03:37;;;;;;;1.98;0.77;;;;;;;22.09;36.11;100086.75;10475776;28;20052;-81
2022/06/06 17:09:06;;;;;;;1.45;0.70;;;;;;;19.92;39.95;100104.94;10474291;28;20045;-81
2022/06/06 17:14:16;;;;;;;4.22;0.75;;;;;;;19.43;41.14;100104.50;10471641;28;20126;-81
2022/06/06 17:19:47;;;;;;;2.35;0.95;;;;;;;20.10;40.57;100091.69;10476856;28;20045;-80
2022/06/06 17:24:56;;;;;;;1.77;0.70;;;;;;;21.52;37.90;100109.84;10471646;28;20041;-81
2022/06/06 17:30:06;;;;;;;2.30;0.60;;;;;;;23.53;34.18;100097.03;10475212;28;20049;-80
2022/06/06 17:35:20;;;;;;;2.55;0.65;;;;;;;23.32;33.94;100114.56;10463137;28;20105;-80
2022/06/06 17:40:43;;;;;;;1.65;0.57;;;;;;;21.34;37.15;100124.91;10485223;28;20033;-80
2022/06/06 17:46:00;;;;;;;1.45;0.82;;;;;;;18.82;42.19;100124.78;10461771;28;20415;-79
2022/06/06 17:51:14;;;;;;;3.28;0.90;;;;;;;18.68;42.34;100123.69;10459931;28;20049;-80
2022/06/06 17:56:27;;;;;;;2.58;0.80;;;;;;;18.52;42.81;100133.66;10463939;28;20119;-81
2022/06/06 18:02:18;;;;;;;4.85;0.60;;;;;;;18.54;43.56;100131.59;10486044;28;20052;-80
2022/06/06 18:07:47;;;;;;;0.80;0.80;;;;;;;18.69;43.68;100126.19;10459421;28;20041;-81
2022/06/06 18:13:04;;;;;;;3.35;0.90;;;;;;;18.55;43.75;100144.16;10460332;28;20049;-80
2022/06/06 18:18:15;;;;;;;1.35;0.68;;;;;;;18.38;44.38;100133.63;10461134;28;20044;-80
2022/06/06 18:23:23;;;;;;;1.17;0.73;;;;;;;18.43;44.08;100134.75;10474369;28;20049;-81
2022/06/06 18:28:38;;;;;;;3.45;1.15;;;;;;;18.39;44.93;100136.13;10465080;28;20384;-79
2022/06/06 18:33:55;;;;;;;5.30;1.50;;;;;;;18.58;44.34;100135.63;10460466;28;20045;-81
2022/06/06 18:38:59;;;;;;;3.35;0.63;;;;;;;18.05;45.33;100139.28;10479071;28;20097;-80
2022/06/06 18:44:15;;;;;;;2.15;0.73;;;;;;;17.75;46.08;100144.47;10494612;28;20640;-81
2022/06/06 18:49:21;;;;;;;2.33;1.00;;;;;;;18.26;45.60;100139.44;10480289;28;20086;-79
2022/06/06 18:54:28;;;;;;;0.95;0.65;;;;;;;18.03;46.47;100149.47;10475143;28;20053;-80
2022/06/06 18:59:39;;;;;;;3.40;0.80;;;;;;;18.13;45.92;100136.50;10483033;28;20562;-80
2022/06/06 19:04:48;;;;;;;1.00;0.70;;;;;;;17.84;46.80;100154.28;10436398;28;20049;-79
2022/06/06 19:09:57;;;;;;;1.10;1.00;;;;;;;;;;10446494;28;20048;-80
2022/06/06 19:15:04;;;;;;;3.45;0.70;;;;;;;17.59;47.78;100161.69;10456384;28;20543;-80
2022/06/06 19:20:18;;;;;;;1.38;0.80;;;;;;;17.38;48.03;100186.69;10451762;28;20068;-79
2022/06/06 19:25:21;;;;;;;5.25;1.00;;;;;;;17.38;48.56;100175.84;10417853;28;20049;-80
2022/06/06 19:30:26;;;;;;;3.60;1.10;;;;;;;17.75;48.15;100182.50;10418054;28;20092;-80
2022/06/06 19:35:32;;;;;;;1.92;1.00;;;;;;;16.82;49.79;100188.44;10429060;28;20055;-80
2022/06/06 19:40:37;;;;;;;2.00;0.93;;;;;;;16.98;50.74;100210.16;10433531;28;20511;-80
2022/06/06 19:45:48;;;;;;;1.88;0.88;;;;;;;16.15;53.77;100212.88;10433860;28;20048;-80
2022/06/06 19:50:55;;;;;;;2.97;0.80;;;;;;;15.96;54.68;100227.53;10454595;28;20152;-79
2022/06/06 19:56:01;;;;;;;2.70;1.00;;;;;;;16.07;55.08;100229.97;10439848;28;20124;-80
2022/06/06 20:01:06;;;;;;;0.85;0.85;;;;;;;16.05;55.26;100247.41;10447067;28;20041;-79
2022/06/06 20:06:18;;;;;;;2.42;1.00;;;;;;;16.04;55.23;100249.25;10444153;28;20064;-82
2022/06/06 20:11:21;;;;;;;1.63;0.97;;;;;;;15.79;55.86;100255.56;10448059;28;20044;-82
2022/06/06 20:16:29;;;;;;;2.35;1.20;;;;;;;15.85;55.72;100261.22;10451890;28;20049;-83
2022/06/06 20:21:35;;;;;;;2.78;1.27;;;;;;;15.55;56.73;100264.41;10449354;28;20092;-81
2022/06/06 20:26:39;;;;;;;2.38;1.38;;;;;;;15.35;58.51;100293.53;10471957;28;20041;-81
2022/06/06 20:37:20;;;;;;;1.23;0.47;;;;;;;14.29;63.57;100307.66;10445614;28;20037;-82
2022/06/06 20:42:30;;;;;;;0.30;0.30;;;;;;;13.83;64.01;100295.06;10442754;28;20045;-82
2022/06/06 20:47:33;;;;;;;0.22;0.22;;;;;;;13.78;62.45;100309.00;10426842;28;20081;-82
2022/06/06 20:52:40;;;;;;;0.47;0.28;;;;;;;13.00;63.41;100322.59;10427513;28;20092;-80
2022/06/06 20:57:52;;;;;;;0.20;0.20;;;;;;;13.24;62.39;100305.94;10428203;28;20057;-83
2022/06/06 21:02:55;;;;;;;0.30;0.30;;;;;;;13.46;60.56;100304.81;10440538;28;20049;-82
2022/06/06 21:08:00;;;;;;;0.80;0.20;;;;;;;12.85;62.15;100298.88;10426269;28;20069;-82
2022/06/06 21:13:07;;;;;;;1.20;0.20;;;;;;;13.23;61.24;100300.72;10427432;28;20082;-82
2022/06/06 21:18:10;;;;;;;0.30;0.20;;;;;;;13.69;60.19;100293.69;10445346;28;20073;-81
2022/06/06 21:23:15;;;;;;;0.95;0.20;;;;;;;13.49;60.19;100285.66;10454741;28;20052;-82
2022/06/06 21:28:18;;;;;;;0.63;0.30;;;;;;;13.87;58.98;100286.50;10453959;28;20091;-81
2022/06/06 21:33:21;;;;;;;0.30;0.30;;;;;;;14.03;58.03;100285.03;10445480;28;20054;-82
2022/06/06 21:38:26;;;;;;;0.50;0.50;;;;;;;13.54;59.68;100277.09;10444782;28;20059;-82
2022/06/06 21:43:29;;;;;;;1.48;0.45;;;;;;;13.64;59.46;100279.78;10448873;28;20100;-82
2022/06/06 21:48:32;;;;;;;0.40;0.40;;;;;;;13.68;58.78;100282.03;10423525;28;20453;-81
2022/06/06 21:53:56;;;;;;;0.43;0.43;;;;;;;13.90;57.71;100272.75;10425190;28;20052;-82
2022/06/06 21:59:01;;;;;;;2.92;0.40;;;;;;;13.87;57.35;100273.00;10427330;28;20044;-81
2022/06/06 22:04:05;;;;;;;1.08;0.20;;;;;;;14.00;57.21;100261.03;10455384;28;20041;-82
2022/06/06 22:09:11;;;;;;;0.90;0.60;;;;;;;14.06;57.37;100257.72;10444503;28;20468;-80
2022/06/06 22:14:14;;;;;;;1.48;0.30;;;;;;;14.02;56.87;100270.69;10443458;28;20108;-81
2022/06/06 22:19:19;;;;;;;0.30;0.30;;;;;;;13.84;57.37;100262.50;10438756;28;20045;-81
2022/06/06 22:24:44;;;;;;;0.30;0.28;;;;;;;13.73;57.62;100262.69;10446720;28;20057;-82
2022/06/06 22:29:46;;;;;;;1.00;0.32;;;;;;;13.73;57.07;100254.59;10454908;28;20048;-81
2022/06/06 22:34:49;;;;;;;0.98;0.50;;;;;;;13.86;56.82;100248.88;10443615;28;20349;-81
2022/06/06 22:39:53;;;;;;;0.82;0.65;;;;;;;13.87;57.25;100251.41;10453570;28;20396;-82
2022/06/06 22:44:57;;;;;;;1.25;0.70;;;;;;;13.81;57.45;100254.72;10429062;28;20080;-79
2022/06/06 22:50:01;;;;;;;0.77;0.50;;;;;;;13.76;57.55;100246.22;10440754;28;20077;-80
2022/06/06 22:55:06;;;;;;;0.77;0.40;;;;;;;13.73;57.87;100251.06;10441169;28;20045;-82
2022/06/06 23:00:11;;;;;;;1.52;0.30;;;;;;;13.73;58.11;100241.09;10444714;28;20041;-81
2022/06/06 23:05:14;;;;;;;1.42;0.77;;;;;;;13.66;58.34;100235.47;10441913;28;20064;-81
2022/06/06 23:10:19;;;;;;;;;;;;;;;13.65;58.27;100249.09;10450690;28;20538;-81
2022/06/06 23:15:22;;;;;;;2.55;0.45;;;;;;;13.65;58.50;100236.44;10442468;28;19920;-81
2022/06/06 23:20:25;;;;;;;0.50;0.50;;;;;;;13.61;58.43;100228.81;10442884;28;20044;-79
2022/06/06 23:25:29;;;;;;;0.68;0.50;;;;;;;13.58;58.54;100235.34;10437033;28;20523;-81
2022/06/06 23:30:32;;;;;;;1.73;0.50;;;;;;;13.47;58.42;100239.06;10439808;28;20056;-81
2022/06/06 23:35:37;;;;;;;0.73;0.68;;;;;;;13.41;58.46;100228.88;10449036;28;20108;-81
2022/06/06 23:40:42;;;;;;;0.47;0.40;;;;;;;13.46;58.30;100221.16;10441863;28;20038;-80
2022/06/06 23:51:09;;;;;;;1.20;0.70;;;;;;;13.55;58.38;100219.47;10432939;28;20491;-81
2022/06/06 23:56:19;;;;;;;1.10;0.60;;;;;;;13.46;58.54;100214.94;10445621;28;20041;-81
